sensor_id;sensor_type;location;lat;lon;timestamp;temperature;humidity
70246;SHT30;57637;49.272;8.590;2022-10-31T00:00:51;11.03;96.34
70246;SHT30;57637;49.272;8.590;2022-10-31T00:03:16;11.04;96.27
70246;SHT30;57637;49.272;8.590;2022-10-31T00:05:43;11.07;96.39
70246;SHT30;57637;49.272;8.590;2022-10-31T00:08:10;11.08;96.41
70246;SHT30;57637;49.272;8.590;2022-10-31T00:10:41;11.03;96.17
70246;SHT30;57637;49.272;8.590;2022-10-31T00:13:08;11.00;96.21
70246;SHT30;57637;49.272;8.590;2022-10-31T00:15:35;11.11;96.67
70246;SHT30;57637;49.272;8.590;2022-10-31T00:18:01;11.28;97.38
70246;SHT30;57637;49.272;8.590;2022-10-31T00:20:28;11.45;97.86
70246;SHT30;57637;49.272;8.590;2022-10-31T00:22:53;11.46;97.93
70246;SHT30;57637;49.272;8.590;2022-10-31T00:25:22;11.36;97.30
70246;SHT30;57637;49.272;8.590;2022-10-31T00:27:47;11.28;97.24
70246;SHT30;57637;49.272;8.590;2022-10-31T00:30:12;11.31;97.40
70246;SHT30;57637;49.272;8.590;2022-10-31T00:32:38;11.34;97.36
70246;SHT30;57637;49.272;8.590;2022-10-31T00:35:03;11.28;96.98
70246;SHT30;57637;49.272;8.590;2022-10-31T00:37:29;11.19;96.92
70246;SHT30;57637;49.272;8.590;2022-10-31T00:39:54;11.16;96.92
70246;SHT30;57637;49.272;8.590;2022-10-31T00:42:19;11.18;97.17
70246;SHT30;57637;49.272;8.590;2022-10-31T00:44:45;11.38;97.82
70246;SHT30;57637;49.272;8.590;2022-10-31T00:47:10;11.49;98.10
70246;SHT30;57637;49.272;8.590;2022-10-31T00:49:35;11.54;97.85
70246;SHT30;57637;49.272;8.590;2022-10-31T00:52:01;11.45;97.50
70246;SHT30;57637;49.272;8.590;2022-10-31T00:54:26;11.31;97.18
70246;SHT30;57637;49.272;8.590;2022-10-31T00:56:51;11.25;97.24
70246;SHT30;57637;49.272;8.590;2022-10-31T00:59:17;11.19;97.15
70246;SHT30;57637;49.272;8.590;2022-10-31T01:01:42;11.24;97.25
70246;SHT30;57637;49.272;8.590;2022-10-31T01:04:07;11.18;97.04
70246;SHT30;57637;49.272;8.590;2022-10-31T01:06:33;11.12;96.80
70246;SHT30;57637;49.272;8.590;2022-10-31T01:08:58;11.05;96.67
70246;SHT30;57637;49.272;8.590;2022-10-31T01:11:24;10.98;96.41
70246;SHT30;57637;49.272;8.590;2022-10-31T01:13:50;10.97;96.80
70246;SHT30;57637;49.272;8.590;2022-10-31T01:16:18;10.95;96.72
70246;SHT30;57637;49.272;8.590;2022-10-31T01:18:45;10.91;96.69
70246;SHT30;57637;49.272;8.590;2022-10-31T01:21:15;10.95;97.07
70246;SHT30;57637;49.272;8.590;2022-10-31T01:23:42;10.94;96.89
70246;SHT30;57637;49.272;8.590;2022-10-31T01:26:12;10.91;96.71
70246;SHT30;57637;49.272;8.590;2022-10-31T01:28:39;10.95;96.78
70246;SHT30;57637;49.272;8.590;2022-10-31T01:31:09;11.01;96.84
70246;SHT30;57637;49.272;8.590;2022-10-31T01:33:35;10.94;96.53
70246;SHT30;57637;49.272;8.590;2022-10-31T01:36:10;10.87;96.50
70246;SHT30;57637;49.272;8.590;2022-10-31T01:38:44;10.80;96.51
70246;SHT30;57637;49.272;8.590;2022-10-31T01:41:11;10.91;97.34
70246;SHT30;57637;49.272;8.590;2022-10-31T01:46:43;10.87;97.40
70246;SHT30;57637;49.272;8.590;2022-10-31T01:49:28;10.81;97.69
70246;SHT30;57637;49.272;8.590;2022-10-31T01:52:02;10.80;97.70
70246;SHT30;57637;49.272;8.590;2022-10-31T01:54:37;10.78;97.73
70246;SHT30;57637;49.272;8.590;2022-10-31T01:57:05;10.78;97.82
70246;SHT30;57637;49.272;8.590;2022-10-31T01:59:34;10.77;97.78
70246;SHT30;57637;49.272;8.590;2022-10-31T02:02:03;10.74;97.76
70246;SHT30;57637;49.272;8.590;2022-10-31T02:04:29;10.74;97.69
70246;SHT30;57637;49.272;8.590;2022-10-31T02:06:58;10.71;97.63
70246;SHT30;57637;49.272;8.590;2022-10-31T02:09:31;10.68;97.53
70246;SHT30;57637;49.272;8.590;2022-10-31T02:11:59;10.65;97.42
70246;SHT30;57637;49.272;8.590;2022-10-31T02:14:26;10.61;97.28
70246;SHT30;57637;49.272;8.590;2022-10-31T02:16:54;10.57;97.19
70246;SHT30;57637;49.272;8.590;2022-10-31T02:22:12;10.47;97.10
70246;SHT30;57637;49.272;8.590;2022-10-31T02:28:04;10.46;97.06
70246;SHT30;57637;49.272;8.590;2022-10-31T02:31:00;10.52;97.38
70246;SHT30;57637;49.272;8.590;2022-10-31T02:38:38;10.80;97.71
70246;SHT30;57637;49.272;8.590;2022-10-31T02:41:18;10.81;97.72
70246;SHT30;57637;49.272;8.590;2022-10-31T02:44:08;10.87;97.71
70246;SHT30;57637;49.272;8.590;2022-10-31T02:49:52;11.01;97.96
70246;SHT30;57637;49.272;8.590;2022-10-31T02:52:20;11.01;97.74
70246;SHT30;57637;49.272;8.590;2022-10-31T02:54:49;11.05;97.75
70246;SHT30;57637;49.272;8.590;2022-10-31T02:57:15;10.98;97.66
70246;SHT30;57637;49.272;8.590;2022-10-31T02:59:46;10.95;97.66
70246;SHT30;57637;49.272;8.590;2022-10-31T03:04:57;10.95;97.80
70246;SHT30;57637;49.272;8.590;2022-10-31T03:15:27;11.08;97.95
70246;SHT30;57637;49.272;8.590;2022-10-31T03:20:55;11.07;97.91
70246;SHT30;57637;49.272;8.590;2022-10-31T03:23:23;11.07;97.84
70246;SHT30;57637;49.272;8.590;2022-10-31T03:25:50;11.07;97.82
70246;SHT30;57637;49.272;8.590;2022-10-31T03:28:20;11.05;97.68
70246;SHT30;57637;49.272;8.590;2022-10-31T03:30:50;11.05;97.79
70246;SHT30;57637;49.272;8.590;2022-10-31T03:33:18;11.01;97.54
70246;SHT30;57637;49.272;8.590;2022-10-31T03:35:48;10.98;97.52
70246;SHT30;57637;49.272;8.590;2022-10-31T03:38:16;11.00;97.39
70246;SHT30;57637;49.272;8.590;2022-10-31T03:40:45;10.97;97.41
70246;SHT30;57637;49.272;8.590;2022-10-31T03:43:16;11.01;97.29
70246;SHT30;57637;49.272;8.590;2022-10-31T03:45:47;11.03;97.13
70246;SHT30;57637;49.272;8.590;2022-10-31T03:48:13;11.01;97.03
70246;SHT30;57637;49.272;8.590;2022-10-31T03:50:45;11.05;96.93
70246;SHT30;57637;49.272;8.590;2022-10-31T03:53:25;11.08;96.77
70246;SHT30;57637;49.272;8.590;2022-10-31T03:56:00;11.10;96.69
70246;SHT30;57637;49.272;8.590;2022-10-31T03:58:34;11.11;96.63
70246;SHT30;57637;49.272;8.590;2022-10-31T04:01:04;11.11;96.59
70246;SHT30;57637;49.272;8.590;2022-10-31T04:03:34;11.10;96.60
70246;SHT30;57637;49.272;8.590;2022-10-31T04:06:04;11.04;96.57
70246;SHT30;57637;49.272;8.590;2022-10-31T04:08:33;11.03;96.75
70246;SHT30;57637;49.272;8.590;2022-10-31T04:11:05;11.04;96.57
70246;SHT30;57637;49.272;8.590;2022-10-31T04:13:33;11.01;96.68
70246;SHT30;57637;49.272;8.590;2022-10-31T04:16:02;11.03;96.74
70246;SHT30;57637;49.272;8.590;2022-10-31T04:18:28;10.98;96.83
70246;SHT30;57637;49.272;8.590;2022-10-31T04:21:01;10.98;96.83
70246;SHT30;57637;49.272;8.590;2022-10-31T04:23:30;10.98;96.97
70246;SHT30;57637;49.272;8.590;2022-10-31T04:25:56;10.95;97.02
70246;SHT30;57637;49.272;8.590;2022-10-31T04:28:22;10.91;97.03
70246;SHT30;57637;49.272;8.590;2022-10-31T04:30:47;10.91;97.27
70246;SHT30;57637;49.272;8.590;2022-10-31T04:33:13;10.90;97.39
70246;SHT30;57637;49.272;8.590;2022-10-31T04:35:38;10.90;97.38
70246;SHT30;57637;49.272;8.590;2022-10-31T04:38:04;10.90;97.41
70246;SHT30;57637;49.272;8.590;2022-10-31T04:40:29;10.87;97.37
70246;SHT30;57637;49.272;8.590;2022-10-31T04:42:54;10.84;97.52
70246;SHT30;57637;49.272;8.590;2022-10-31T04:45:20;10.85;97.47
70246;SHT30;57637;49.272;8.590;2022-10-31T04:47:45;10.84;97.48
70246;SHT30;57637;49.272;8.590;2022-10-31T04:50:11;10.84;97.57
70246;SHT30;57637;49.272;8.590;2022-10-31T04:52:39;10.83;97.63
70246;SHT30;57637;49.272;8.590;2022-10-31T04:55:05;10.81;97.52
70246;SHT30;57637;49.272;8.590;2022-10-31T04:57:31;10.75;97.47
70246;SHT30;57637;49.272;8.590;2022-10-31T04:59:57;10.71;97.40
70246;SHT30;57637;49.272;8.590;2022-10-31T05:02:22;10.54;97.02
70246;SHT30;57637;49.272;8.590;2022-10-31T05:04:47;10.39;96.88
70246;SHT30;57637;49.272;8.590;2022-10-31T05:07:13;10.34;97.04
70246;SHT30;57637;49.272;8.590;2022-10-31T05:09:38;10.30;97.25
70246;SHT30;57637;49.272;8.590;2022-10-31T05:12:04;10.24;97.28
70246;SHT30;57637;49.272;8.590;2022-10-31T05:14:29;10.26;97.44
70246;SHT30;57637;49.272;8.590;2022-10-31T05:16:54;10.22;97.36
70246;SHT30;57637;49.272;8.590;2022-10-31T05:19:20;10.19;97.54
70246;SHT30;57637;49.272;8.590;2022-10-31T05:21:45;10.13;97.47
70246;SHT30;57637;49.272;8.590;2022-10-31T05:24:10;10.12;97.51
70246;SHT30;57637;49.272;8.590;2022-10-31T05:26:36;10.10;97.83
70246;SHT30;57637;49.272;8.590;2022-10-31T05:29:01;10.14;98.04
70246;SHT30;57637;49.272;8.590;2022-10-31T05:31:26;10.26;98.34
70246;SHT30;57637;49.272;8.590;2022-10-31T05:33:52;10.42;98.16
70246;SHT30;57637;49.272;8.590;2022-10-31T05:36:17;10.49;97.97
70246;SHT30;57637;49.272;8.590;2022-10-31T05:38:43;10.59;97.81
70246;SHT30;57637;49.272;8.590;2022-10-31T05:41:08;10.59;97.58
70246;SHT30;57637;49.272;8.590;2022-10-31T05:43:34;10.60;97.58
70246;SHT30;57637;49.272;8.590;2022-10-31T05:46:00;10.65;97.45
70246;SHT30;57637;49.272;8.590;2022-10-31T05:48:25;10.73;97.13
70246;SHT30;57637;49.272;8.590;2022-10-31T05:50:50;10.73;97.03
70246;SHT30;57637;49.272;8.590;2022-10-31T05:53:17;10.68;96.90
70246;SHT30;57637;49.272;8.590;2022-10-31T05:55:42;10.71;96.86
70246;SHT30;57637;49.272;8.590;2022-10-31T05:58:08;10.70;96.72
70246;SHT30;57637;49.272;8.590;2022-10-31T06:00:34;10.01;94.00
70246;SHT30;57637;49.272;8.590;2022-10-31T06:03:04;9.75;95.44
70246;SHT30;57637;49.272;8.590;2022-10-31T06:05:31;9.71;96.19
70246;SHT30;57637;49.272;8.590;2022-10-31T06:07:57;9.68;96.93
70246;SHT30;57637;49.272;8.590;2022-10-31T06:10:23;9.82;97.18
70246;SHT30;57637;49.272;8.590;2022-10-31T06:12:49;9.86;97.34
70246;SHT30;57637;49.272;8.590;2022-10-31T06:15:14;9.95;97.49
70246;SHT30;57637;49.272;8.590;2022-10-31T06:17:40;9.95;97.30
70246;SHT30;57637;49.272;8.590;2022-10-31T06:20:06;10.02;97.35
70246;SHT30;57637;49.272;8.590;2022-10-31T06:22:32;10.01;97.17
70246;SHT30;57637;49.272;8.590;2022-10-31T06:24:57;10.09;97.36
70246;SHT30;57637;49.272;8.590;2022-10-31T06:27:23;10.08;97.16
70246;SHT30;57637;49.272;8.590;2022-10-31T06:29:49;10.08;96.97
70246;SHT30;57637;49.272;8.590;2022-10-31T06:32:14;10.09;97.27
70246;SHT30;57637;49.272;8.590;2022-10-31T06:34:40;10.10;96.76
70246;SHT30;57637;49.272;8.590;2022-10-31T06:37:07;10.12;96.60
70246;SHT30;57637;49.272;8.590;2022-10-31T06:39:33;10.20;96.85
70246;SHT30;57637;49.272;8.590;2022-10-31T06:41:59;10.28;96.75
70246;SHT30;57637;49.272;8.590;2022-10-31T06:44:24;10.33;96.49
70246;SHT30;57637;49.272;8.590;2022-10-31T06:46:49;10.44;96.58
70246;SHT30;57637;49.272;8.590;2022-10-31T06:49:15;10.54;96.56
70246;SHT30;57637;49.272;8.590;2022-10-31T06:51:41;10.63;96.27
70246;SHT30;57637;49.272;8.590;2022-10-31T06:54:06;10.73;96.30
70246;SHT30;57637;49.272;8.590;2022-10-31T06:56:32;10.94;96.24
70246;SHT30;57637;49.272;8.590;2022-10-31T06:58:57;10.77;94.94
70246;SHT30;57637;49.272;8.590;2022-10-31T07:01:22;10.88;95.30
70246;SHT30;57637;49.272;8.590;2022-10-31T07:03:48;11.04;95.29
70246;SHT30;57637;49.272;8.590;2022-10-31T07:06:13;11.10;94.79
70246;SHT30;57637;49.272;8.590;2022-10-31T07:08:38;11.11;94.63
70246;SHT30;57637;49.272;8.590;2022-10-31T07:11:04;11.21;94.22
70246;SHT30;57637;49.272;8.590;2022-10-31T07:13:29;11.32;94.18
70246;SHT30;57637;49.272;8.590;2022-10-31T07:15:59;11.29;93.64
70246;SHT30;57637;49.272;8.590;2022-10-31T07:18:26;11.16;93.65
70246;SHT30;57637;49.272;8.590;2022-10-31T07:20:52;11.25;93.99
70246;SHT30;57637;49.272;8.590;2022-10-31T07:23:18;11.35;93.98
70246;SHT30;57637;49.272;8.590;2022-10-31T07:25:44;11.51;93.41
70246;SHT30;57637;49.272;8.590;2022-10-31T07:28:09;11.63;93.29
70246;SHT30;57637;49.272;8.590;2022-10-31T07:30:35;11.52;92.68
70246;SHT30;57637;49.272;8.590;2022-10-31T07:33:01;11.62;93.04
70246;SHT30;57637;49.272;8.590;2022-10-31T07:35:28;11.70;93.28
70246;SHT30;57637;49.272;8.590;2022-10-31T07:37:54;11.80;93.64
70246;SHT30;57637;49.272;8.590;2022-10-31T07:40:20;11.91;92.63
70246;SHT30;57637;49.272;8.590;2022-10-31T07:42:47;11.94;91.99
70246;SHT30;57637;49.272;8.590;2022-10-31T07:45:15;12.10;92.28
70246;SHT30;57637;49.272;8.590;2022-10-31T07:50:09;12.40;91.13
70246;SHT30;57637;49.272;8.590;2022-10-31T07:52:36;12.44;91.32
70246;SHT30;57637;49.272;8.590;2022-10-31T07:55:02;12.54;91.12
70246;SHT30;57637;49.272;8.590;2022-10-31T07:57:28;12.61;90.86
70246;SHT30;57637;49.272;8.590;2022-10-31T07:59:53;12.75;90.42
70246;SHT30;57637;49.272;8.590;2022-10-31T08:02:19;12.81;90.46
70246;SHT30;57637;49.272;8.590;2022-10-31T08:04:44;12.82;90.67
70246;SHT30;57637;49.272;8.590;2022-10-31T08:07:09;12.89;91.09
70246;SHT30;57637;49.272;8.590;2022-10-31T08:09:35;12.95;91.14
70246;SHT30;57637;49.272;8.590;2022-10-31T08:12:00;13.02;90.74
70246;SHT30;57637;49.272;8.590;2022-10-31T08:14:26;13.01;90.84
70246;SHT30;57637;49.272;8.590;2022-10-31T08:16:52;12.96;91.19
70246;SHT30;57637;49.272;8.590;2022-10-31T08:19:18;13.08;90.77
70246;SHT30;57637;49.272;8.590;2022-10-31T08:21:43;13.23;90.47
70246;SHT30;57637;49.272;8.590;2022-10-31T08:24:09;13.35;90.26
70246;SHT30;57637;49.272;8.590;2022-10-31T08:26:34;13.22;90.20
70246;SHT30;57637;49.272;8.590;2022-10-31T08:29:00;13.43;89.83
70246;SHT30;57637;49.272;8.590;2022-10-31T08:31:26;13.46;90.05
70246;SHT30;57637;49.272;8.590;2022-10-31T08:33:53;13.49;90.26
70246;SHT30;57637;49.272;8.590;2022-10-31T08:36:19;13.49;90.41
70246;SHT30;57637;49.272;8.590;2022-10-31T08:38:46;13.52;90.46
70246;SHT30;57637;49.272;8.590;2022-10-31T08:41:12;13.53;90.39
70246;SHT30;57637;49.272;8.590;2022-10-31T08:43:37;13.70;89.81
70246;SHT30;57637;49.272;8.590;2022-10-31T08:46:03;13.64;90.13
70246;SHT30;57637;49.272;8.590;2022-10-31T08:48:28;13.87;89.77
70246;SHT30;57637;49.272;8.590;2022-10-31T08:50:56;13.95;90.04
70246;SHT30;57637;49.272;8.590;2022-10-31T08:53:25;14.10;89.28
70246;SHT30;57637;49.272;8.590;2022-10-31T08:55:53;14.32;88.85
70246;SHT30;57637;49.272;8.590;2022-10-31T08:58:20;14.41;87.71
70246;SHT30;57637;49.272;8.590;2022-10-31T09:00:46;14.64;87.43
70246;SHT30;57637;49.272;8.590;2022-10-31T09:03:15;14.79;87.11
70246;SHT30;57637;49.272;8.590;2022-10-31T09:05:42;14.76;86.71
70246;SHT30;57637;49.272;8.590;2022-10-31T09:08:08;14.69;87.69
70246;SHT30;57637;49.272;8.590;2022-10-31T09:10:35;14.82;86.53
70246;SHT30;57637;49.272;8.590;2022-10-31T09:13:10;14.83;86.09
70246;SHT30;57637;49.272;8.590;2022-10-31T09:15:43;14.86;86.81
70246;SHT30;57637;49.272;8.590;2022-10-31T09:18:10;15.00;86.13
70246;SHT30;57637;49.272;8.590;2022-10-31T09:20:36;15.41;85.27
70246;SHT30;57637;49.272;8.590;2022-10-31T09:23:04;15.47;85.84
70246;SHT30;57637;49.272;8.590;2022-10-31T09:25:32;15.46;85.46
70246;SHT30;57637;49.272;8.590;2022-10-31T09:27:58;15.57;84.79
70246;SHT30;57637;49.272;8.590;2022-10-31T09:30:26;15.53;84.08
70246;SHT30;57637;49.272;8.590;2022-10-31T09:32:57;15.22;85.51
70246;SHT30;57637;49.272;8.590;2022-10-31T09:35:23;15.54;84.65
70246;SHT30;57637;49.272;8.590;2022-10-31T09:38:02;15.47;85.31
70246;SHT30;57637;49.272;8.590;2022-10-31T09:40:36;15.65;84.70
70246;SHT30;57637;49.272;8.590;2022-10-31T09:45:57;16.01;83.80
70246;SHT30;57637;49.272;8.590;2022-10-31T09:48:37;15.97;83.65
70246;SHT30;57637;49.272;8.590;2022-10-31T09:51:09;16.08;83.42
70246;SHT30;57637;49.272;8.590;2022-10-31T09:53:40;16.29;82.84
70246;SHT30;57637;49.272;8.590;2022-10-31T09:56:10;16.29;82.79
70246;SHT30;57637;49.272;8.590;2022-10-31T09:59:00;16.13;83.36
70246;SHT30;57637;49.272;8.590;2022-10-31T10:07:50;16.70;81.23
70246;SHT30;57637;49.272;8.590;2022-10-31T10:12:48;16.53;82.14
70246;SHT30;57637;49.272;8.590;2022-10-31T10:26:43;16.83;81.80
70246;SHT30;57637;49.272;8.590;2022-10-31T10:29:33;17.06;81.98
70246;SHT30;57637;49.272;8.590;2022-10-31T10:32:05;16.91;81.80
70246;SHT30;57637;49.272;8.590;2022-10-31T10:34:40;16.90;81.63
70246;SHT30;57637;49.272;8.590;2022-10-31T10:37:44;16.91;81.76
70246;SHT30;57637;49.272;8.590;2022-10-31T10:40:21;17.06;80.97
70246;SHT30;57637;49.272;8.590;2022-10-31T10:42:59;17.11;80.82
70246;SHT30;57637;49.272;8.590;2022-10-31T10:49:18;16.97;81.49
70246;SHT30;57637;49.272;8.590;2022-10-31T10:54:30;16.94;81.37
70246;SHT30;57637;49.272;8.590;2022-10-31T11:00:14;17.21;80.63
70246;SHT30;57637;49.272;8.590;2022-10-31T11:02:41;17.10;80.43
70246;SHT30;57637;49.272;8.590;2022-10-31T11:05:08;17.11;80.48
70246;SHT30;57637;49.272;8.590;2022-10-31T11:07:43;17.18;80.68
70246;SHT30;57637;49.272;8.590;2022-10-31T11:10:12;17.32;80.42
70246;SHT30;57637;49.272;8.590;2022-10-31T11:12:41;17.23;80.74
70246;SHT30;57637;49.272;8.590;2022-10-31T11:15:18;17.41;80.48
70246;SHT30;57637;49.272;8.590;2022-10-31T11:17:51;17.39;80.37
70246;SHT30;57637;49.272;8.590;2022-10-31T11:22:44;17.42;79.59
70246;SHT30;57637;49.272;8.590;2022-10-31T11:25:44;17.64;79.41
70246;SHT30;57637;49.272;8.590;2022-10-31T11:28:03;17.58;78.92
70246;SHT30;57637;49.272;8.590;2022-10-31T11:30:35;17.72;78.51
70246;SHT30;57637;49.272;8.590;2022-10-31T11:33:12;17.93;78.98
70246;SHT30;57637;49.272;8.590;2022-10-31T11:35:44;18.12;78.36
70246;SHT30;57637;49.272;8.590;2022-10-31T11:38:13;18.07;77.89
70246;SHT30;57637;49.272;8.590;2022-10-31T11:43:36;18.22;77.68
70246;SHT30;57637;49.272;8.590;2022-10-31T11:46:11;18.19;78.93
70246;SHT30;57637;49.272;8.590;2022-10-31T11:48:46;18.22;78.69
70246;SHT30;57637;49.272;8.590;2022-10-31T11:51:21;18.40;78.12
70246;SHT30;57637;49.272;8.590;2022-10-31T11:53:50;18.49;77.66
70246;SHT30;57637;49.272;8.590;2022-10-31T11:56:17;18.19;77.41
70246;SHT30;57637;49.272;8.590;2022-10-31T11:58:43;18.30;77.65
70246;SHT30;57637;49.272;8.590;2022-10-31T12:01:22;18.39;77.79
70246;SHT30;57637;49.272;8.590;2022-10-31T12:06:16;18.12;78.12
70246;SHT30;57637;49.272;8.590;2022-10-31T12:08:47;18.36;77.66
70246;SHT30;57637;49.272;8.590;2022-10-31T12:14:01;18.51;76.83
70246;SHT30;57637;49.272;8.590;2022-10-31T12:19:45;18.77;77.21
70246;SHT30;57637;49.272;8.590;2022-10-31T12:30:25;18.94;78.08
70246;SHT30;57637;49.272;8.590;2022-10-31T12:38:46;18.72;75.73
70246;SHT30;57637;49.272;8.590;2022-10-31T12:49:40;18.51;77.58
70246;SHT30;57637;49.272;8.590;2022-10-31T12:52:19;18.57;76.75
70246;SHT30;57637;49.272;8.590;2022-10-31T12:57:35;18.53;77.54
70246;SHT30;57637;49.272;8.590;2022-10-31T13:05:50;18.19;78.28
70246;SHT30;57637;49.272;8.590;2022-10-31T13:08:30;18.16;77.53
70246;SHT30;57637;49.272;8.590;2022-10-31T13:13:42;18.20;77.66
70246;SHT30;57637;49.272;8.590;2022-10-31T13:16:18;18.03;77.89
70246;SHT30;57637;49.272;8.590;2022-10-31T13:21:24;18.25;77.36
70246;SHT30;57637;49.272;8.590;2022-10-31T13:23:52;18.17;77.39
70246;SHT30;57637;49.272;8.590;2022-10-31T13:29:13;18.22;77.90
70246;SHT30;57637;49.272;8.590;2022-10-31T13:31:43;18.33;77.98
70246;SHT30;57637;49.272;8.590;2022-10-31T13:34:20;18.05;78.40
70246;SHT30;57637;49.272;8.590;2022-10-31T13:36:50;18.29;78.27
70246;SHT30;57637;49.272;8.590;2022-10-31T13:42:23;18.85;76.76
70246;SHT30;57637;49.272;8.590;2022-10-31T13:45:15;19.22;75.19
70246;SHT30;57637;49.272;8.590;2022-10-31T13:47:42;19.53;75.20
70246;SHT30;57637;49.272;8.590;2022-10-31T13:52:42;20.09;73.62
70246;SHT30;57637;49.272;8.590;2022-10-31T13:55:33;20.13;73.60
70246;SHT30;57637;49.272;8.590;2022-10-31T13:58:03;20.21;73.27
70246;SHT30;57637;49.272;8.590;2022-10-31T14:03:33;20.01;73.33
70246;SHT30;57637;49.272;8.590;2022-10-31T14:06:01;19.83;72.72
70246;SHT30;57637;49.272;8.590;2022-10-31T14:08:27;19.73;72.94
70246;SHT30;57637;49.272;8.590;2022-10-31T14:10:56;19.69;73.72
70246;SHT30;57637;49.272;8.590;2022-10-31T14:16:01;19.58;73.54
70246;SHT30;57637;49.272;8.590;2022-10-31T14:18:33;19.35;74.09
70246;SHT30;57637;49.272;8.590;2022-10-31T14:21:12;19.18;75.03
70246;SHT30;57637;49.272;8.590;2022-10-31T14:23:39;19.02;75.27
70246;SHT30;57637;49.272;8.590;2022-10-31T14:28:48;18.56;77.10
70246;SHT30;57637;49.272;8.590;2022-10-31T14:37:16;18.13;78.47
70246;SHT30;57637;49.272;8.590;2022-10-31T14:50:55;17.76;80.05
70246;SHT30;57637;49.272;8.590;2022-10-31T14:55:55;17.64;81.84
70246;SHT30;57637;49.272;8.590;2022-10-31T14:58:25;17.54;82.27
70246;SHT30;57637;49.272;8.590;2022-10-31T15:01:05;17.32;82.93
70246;SHT30;57637;49.272;8.590;2022-10-31T15:03:33;17.25;83.36
70246;SHT30;57637;49.272;8.590;2022-10-31T15:06:11;17.24;83.80
70246;SHT30;57637;49.272;8.590;2022-10-31T15:11:14;17.24;83.50
70246;SHT30;57637;49.272;8.590;2022-10-31T15:13:49;17.18;83.52
70246;SHT30;57637;49.272;8.590;2022-10-31T15:16:18;17.20;83.80
70246;SHT30;57637;49.272;8.590;2022-10-31T15:18:47;17.17;83.55
70246;SHT30;57637;49.272;8.590;2022-10-31T15:21:17;17.18;83.79
70246;SHT30;57637;49.272;8.590;2022-10-31T15:23:47;17.14;83.99
70246;SHT30;57637;49.272;8.590;2022-10-31T15:26:20;17.08;84.12
70246;SHT30;57637;49.272;8.590;2022-10-31T15:29:32;17.02;84.52
70246;SHT30;57637;49.272;8.590;2022-10-31T15:31:37;17.06;84.37
70246;SHT30;57637;49.272;8.590;2022-10-31T15:34:03;16.97;84.62
70246;SHT30;57637;49.272;8.590;2022-10-31T15:36:32;16.91;84.72
70246;SHT30;57637;49.272;8.590;2022-10-31T15:38:57;16.91;84.86
70246;SHT30;57637;49.272;8.590;2022-10-31T15:41:47;16.80;84.82
70246;SHT30;57637;49.272;8.590;2022-10-31T15:44:30;16.76;85.10
70246;SHT30;57637;49.272;8.590;2022-10-31T15:47:01;16.72;85.04
70246;SHT30;57637;49.272;8.590;2022-10-31T15:49:33;16.72;85.24
70246;SHT30;57637;49.272;8.590;2022-10-31T15:52:10;16.69;85.39
70246;SHT30;57637;49.272;8.590;2022-10-31T15:55:05;16.66;85.30
70246;SHT30;57637;49.272;8.590;2022-10-31T15:57:33;16.62;85.52
70246;SHT30;57637;49.272;8.590;2022-10-31T16:02:46;16.55;85.61
70246;SHT30;57637;49.272;8.590;2022-10-31T16:05:14;16.49;85.99
70246;SHT30;57637;49.272;8.590;2022-10-31T16:07:47;16.41;86.25
70246;SHT30;57637;49.272;8.590;2022-10-31T16:10:22;16.39;86.34
70246;SHT30;57637;49.272;8.590;2022-10-31T16:12:50;16.39;86.20
70246;SHT30;57637;49.272;8.590;2022-10-31T16:15:17;16.34;86.21
70246;SHT30;57637;49.272;8.590;2022-10-31T16:17:46;16.30;86.34
70246;SHT30;57637;49.272;8.590;2022-10-31T16:20:22;16.28;86.52
70246;SHT30;57637;49.272;8.590;2022-10-31T16:22:50;16.21;86.68
70246;SHT30;57637;49.272;8.590;2022-10-31T16:25:19;16.16;86.72
70246;SHT30;57637;49.272;8.590;2022-10-31T16:28:03;16.11;86.81
70246;SHT30;57637;49.272;8.590;2022-10-31T16:33:05;16.01;87.06
70246;SHT30;57637;49.272;8.590;2022-10-31T16:35:46;15.94;87.31
70246;SHT30;57637;49.272;8.590;2022-10-31T16:38:13;15.85;87.54
70246;SHT30;57637;49.272;8.590;2022-10-31T16:40:38;15.70;87.86
70246;SHT30;57637;49.272;8.590;2022-10-31T16:43:04;15.54;88.17
70246;SHT30;57637;49.272;8.590;2022-10-31T16:45:34;15.43;88.74
70246;SHT30;57637;49.272;8.590;2022-10-31T16:48:03;15.38;89.02
70246;SHT30;57637;49.272;8.590;2022-10-31T16:50:31;15.33;89.81
70246;SHT30;57637;49.272;8.590;2022-10-31T16:52:57;15.26;89.88
70246;SHT30;57637;49.272;8.590;2022-10-31T16:55:23;15.24;90.16
70246;SHT30;57637;49.272;8.590;2022-10-31T16:57:50;15.29;90.23
70246;SHT30;57637;49.272;8.590;2022-10-31T17:00:18;15.31;90.07
70246;SHT30;57637;49.272;8.590;2022-10-31T17:02:45;15.31;90.35
70246;SHT30;57637;49.272;8.590;2022-10-31T17:05:14;15.37;90.33
70246;SHT30;57637;49.272;8.590;2022-10-31T17:07:40;15.31;90.34
70246;SHT30;57637;49.272;8.590;2022-10-31T17:10:06;15.30;90.30
70246;SHT30;57637;49.272;8.590;2022-10-31T17:12:32;15.29;90.47
70246;SHT30;57637;49.272;8.590;2022-10-31T17:14:58;15.29;90.66
70246;SHT30;57637;49.272;8.590;2022-10-31T17:17:24;15.26;90.79
70246;SHT30;57637;49.272;8.590;2022-10-31T17:19:50;15.22;90.71
70246;SHT30;57637;49.272;8.590;2022-10-31T17:22:15;15.20;90.82
70246;SHT30;57637;49.272;8.590;2022-10-31T17:24:41;15.22;90.78
70246;SHT30;57637;49.272;8.590;2022-10-31T17:27:06;15.11;90.78
70246;SHT30;57637;49.272;8.590;2022-10-31T17:29:32;14.93;90.80
70246;SHT30;57637;49.272;8.590;2022-10-31T17:31:57;14.82;91.23
70246;SHT30;57637;49.272;8.590;2022-10-31T17:34:24;14.78;91.88
70246;SHT30;57637;49.272;8.590;2022-10-31T17:36:50;14.78;92.52
70246;SHT30;57637;49.272;8.590;2022-10-31T17:39:17;14.79;92.70
70246;SHT30;57637;49.272;8.590;2022-10-31T17:41:43;14.83;92.73
70246;SHT30;57637;49.272;8.590;2022-10-31T17:44:09;14.78;92.54
70246;SHT30;57637;49.272;8.590;2022-10-31T17:46:35;14.76;92.66
70246;SHT30;57637;49.272;8.590;2022-10-31T17:49:01;14.71;92.61
70246;SHT30;57637;49.272;8.590;2022-10-31T17:51:29;14.65;92.52
70246;SHT30;57637;49.272;8.590;2022-10-31T17:53:54;14.61;92.57
70246;SHT30;57637;49.272;8.590;2022-10-31T17:56:21;14.56;92.63
70246;SHT30;57637;49.272;8.590;2022-10-31T17:58:47;14.48;92.35
70246;SHT30;57637;49.272;8.590;2022-10-31T18:01:13;14.41;92.17
70246;SHT30;57637;49.272;8.590;2022-10-31T18:03:39;14.20;92.35
70246;SHT30;57637;49.272;8.590;2022-10-31T18:06:05;14.17;92.82
70246;SHT30;57637;49.272;8.590;2022-10-31T18:08:33;14.08;92.98
70246;SHT30;57637;49.272;8.590;2022-10-31T18:11:11;14.05;93.36
70246;SHT30;57637;49.272;8.590;2022-10-31T18:13:40;14.01;93.62
70246;SHT30;57637;49.272;8.590;2022-10-31T18:16:07;14.03;93.72
70246;SHT30;57637;49.272;8.590;2022-10-31T18:18:37;13.97;93.86
70246;SHT30;57637;49.272;8.590;2022-10-31T18:21:03;14.01;93.78